Himawari 2 — JG5636 — position and weather

sailwx.info

Track history (hours):
 
Tides and Currents Weather Stations Pressure Air Temp Water Temp Dewpoint Dewpoint Depression Visibility Wind Speed Wind Dir Waves Ship Positions

Himawari 2

Last reported at 2014-Nov-26 17:29 UTC. Time now 2014-Nov-28 07:00 UTC.
Position N 35°03' E 139°43'.

Length 161 m; draft 6.5 m.

Type: Cargo ship. MMSI: 431100957.

Date/timePositionNaut miles runAvg speedWind from/ knotsBaromVisibWave heightAir tempDewpointWater temp
2014-Nov-26 17:29N 35°03' E 139°43'1414.9
2014-Nov-26 16:33N 35°17' E 139°45'1211.6
2014-Nov-26 15:33N 35°28' E 139°49'9 8.6
2014-Nov-26 14:28N 35°38' E 139°50'0 0.0
2014-Nov-26 04:22N 35°38' E 139°50'0 0.0
2014-Nov-26 03:16N 35°38' E 139°50'0 0.0
2014-Nov-26 02:19N 35°38' E 139°50'0 0.0
2014-Nov-26 01:10N 35°38' E 139°50'0 0.0
2014-Nov-26 00:22N 35°38' E 139°50'3 3.3
2014-Nov-25 23:33N 35°35' E 139°51'1313.1
2014-Nov-25 22:34N 35°23' E 139°46'1111.5
2014-Nov-25 21:33N 35°11' E 139°47'24817.7
2014-Nov-25 07:33N 34°01' E 134°58'2424.1
2014-Nov-25 06:34N 34°25' E 134°60'1312.4
2014-Nov-25 05:32N 34°32' E 134°47'2 0.2
2014-Nov-24 17:32N 34°34' E 134°49'1313.0
2014-Nov-24 16:33N 34°36' E 135°05'1514.5
2014-Nov-24 15:33N 34°38' E 135°22'2 2.3
2014-Nov-24 14:28N 34°40' E 135°24'0 0.0
2014-Nov-24 13:28N 34°40' E 135°24'0 0.0
2014-Nov-24 12:22N 34°40' E 135°24'0 0.0
2014-Nov-24 11:22N 34°40' E 135°24'0 0.0
2014-Nov-24 10:28N 34°40' E 135°24'0 0.0
2014-Nov-24 09:16N 34°40' E 135°24'0 0.0
2014-Nov-24 08:22N 34°40' E 135°24'0 0.0
2014-Nov-24 07:28N 34°40' E 135°24'0 0.0
2014-Nov-24 06:28N 34°40' E 135°24'0 0.0
2014-Nov-24 05:16N 34°40' E 135°24'0 0.1
2014-Nov-24 04:29N 34°39' E 135°24'1313.7
2014-Nov-24 03:33N 34°30' E 135°13'1919.0
2014-Nov-24 02:33N 34°15' E 134°59'2019.9
2014-Nov-24 01:33N 33°56' E 134°60'24217.2
2014-Nov-23 11:30N 35°05' E 139°41'1313.6
2014-Nov-23 10:33N 35°18' E 139°44'1514.9
2014-Nov-23 09:33N 35°31' E 139°52'7 5.1
2014-Nov-23 08:12N 35°38' E 139°50'0 0.0
2014-Nov-23 07:33N 35°38' E 139°50'0 0.0
2014-Nov-23 06:33N 35°38' E 139°50'0 0.0
2014-Nov-23 05:33N 35°38' E 139°50'0 0.0
2014-Nov-23 04:32N 35°38' E 139°50'6 6.5
2014-Nov-23 03:33N 35°32' E 139°52'1313.1
2014-Nov-23 02:33N 35°20' E 139°44'1312.9
2014-Nov-23 01:33N 35°07' E 139°47'  
2014-Nov-19 16:09N 34°59' E 139°42'1219.1
2014-Nov-19 15:32N 35°10' E 139°45'1313.3
2014-Nov-19 14:34N 35°23' E 139°42'1615.5
2014-Nov-19 13:33N 35°37' E 139°49'0 0.0
2014-Nov-19 06:32N 35°38' E 139°50'0 0.0
2014-Nov-19 00:09N 35°38' E 139°50'2 3.6
2014-Nov-18 23:34N 35°36' E 139°50'1414.2
2014-Nov-18 22:33N 35°22' E 139°45'1211.8
2014-Nov-18 21:33N 35°10' E 139°47'25017.5
2014-Nov-18 07:16N 33°53' E 134°58'1521.4
2014-Nov-18 06:33N 34°09' E 134°58'2322.7
2014-Nov-18 05:33N 34°31' E 135°02'13 1.1
2014-Nov-17 17:31N 34°33' E 134°46'1515.3
2014-Nov-17 16:33N 34°36' E 135°04'1515.4
2014-Nov-17 15:33N 34°38' E 135°23'2 2.1
2014-Nov-17 14:29N 34°40' E 135°24'0 0.0
2014-Nov-17 13:29N 34°40' E 135°24'0 0.0
2014-Nov-17 12:29N 34°40' E 135°24'0 0.0
2014-Nov-17 11:29N 34°40' E 135°24'0 0.0
2014-Nov-17 10:23N 34°40' E 135°24'0 0.0
2014-Nov-17 09:29N 34°40' E 135°24'0 0.0
2014-Nov-17 08:17N 34°40' E 135°24'0 0.0
2014-Nov-17 07:23N 34°40' E 135°24'0 0.0
2014-Nov-17 06:29N 34°40' E 135°24'0 0.0
2014-Nov-17 05:29N 34°40' E 135°24'0 0.0
2014-Nov-17 04:29N 34°40' E 135°24'5 5.1
2014-Nov-17 03:33N 34°36' E 135°20'1616.5
2014-Nov-17 02:33N 34°24' E 135°07'1616.4
2014-Nov-17 01:33N 34°09' E 134°60'  
Track history (hours):
 
Tides and Currents Weather Stations Pressure Air Temp Water Temp Dewpoint Dewpoint Depression Visibility Wind Speed Wind Dir Waves Ship Positions

Himawari 2

Last reported at 2014-Nov-26 17:29 UTC. Time now 2014-Nov-28 07:00 UTC.
Position N 35°03' E 139°43'.

Length 161 m; draft 6.5 m.

Type: Cargo ship. MMSI: 431100957.

Date/timePositionNaut miles runAvg speedWind from/ knotsBaromVisibWave heightAir tempDewpointWater temp
2014-Nov-26 17:29N 35°03' E 139°43'1414.9
2014-Nov-26 16:33N 35°17' E 139°45'1211.6
2014-Nov-26 15:33N 35°28' E 139°49'9 8.6
2014-Nov-26 14:28N 35°38' E 139°50'0 0.0
2014-Nov-26 04:22N 35°38' E 139°50'0 0.0
2014-Nov-26 03:16N 35°38' E 139°50'0 0.0
2014-Nov-26 02:19N 35°38' E 139°50'0 0.0
2014-Nov-26 01:10N 35°38' E 139°50'0 0.0
2014-Nov-26 00:22N 35°38' E 139°50'3 3.3
2014-Nov-25 23:33N 35°35' E 139°51'1313.1
2014-Nov-25 22:34N 35°23' E 139°46'1111.5
2014-Nov-25 21:33N 35°11' E 139°47'24817.7
2014-Nov-25 07:33N 34°01' E 134°58'2424.1
2014-Nov-25 06:34N 34°25' E 134°60'1312.4
2014-Nov-25 05:32N 34°32' E 134°47'2 0.2
2014-Nov-24 17:32N 34°34' E 134°49'1313.0
2014-Nov-24 16:33N 34°36' E 135°05'1514.5
2014-Nov-24 15:33N 34°38' E 135°22'2 2.3
2014-Nov-24 14:28N 34°40' E 135°24'0 0.0
2014-Nov-24 13:28N 34°40' E 135°24'0 0.0
2014-Nov-24 12:22N 34°40' E 135°24'0 0.0
2014-Nov-24 11:22N 34°40' E 135°24'0 0.0
2014-Nov-24 10:28N 34°40' E 135°24'0 0.0
2014-Nov-24 09:16N 34°40' E 135°24'0 0.0
2014-Nov-24 08:22N 34°40' E 135°24'0 0.0
2014-Nov-24 07:28N 34°40' E 135°24'0 0.0
2014-Nov-24 06:28N 34°40' E 135°24'0 0.0
2014-Nov-24 05:16N 34°40' E 135°24'0 0.1
2014-Nov-24 04:29N 34°39' E 135°24'1313.7
2014-Nov-24 03:33N 34°30' E 135°13'1919.0
2014-Nov-24 02:33N 34°15' E 134°59'2019.9
2014-Nov-24 01:33N 33°56' E 134°60'24217.2
2014-Nov-23 11:30N 35°05' E 139°41'1313.6
2014-Nov-23 10:33N 35°18' E 139°44'1514.9
2014-Nov-23 09:33N 35°31' E 139°52'7 5.1
2014-Nov-23 08:12N 35°38' E 139°50'0 0.0
2014-Nov-23 07:33N 35°38' E 139°50'0 0.0
2014-Nov-23 06:33N 35°38' E 139°50'0 0.0
2014-Nov-23 05:33N 35°38' E 139°50'0 0.0
2014-Nov-23 04:32N 35°38' E 139°50'6 6.5
2014-Nov-23 03:33N 35°32' E 139°52'1313.1
2014-Nov-23 02:33N 35°20' E 139°44'1312.9
2014-Nov-23 01:33N 35°07' E 139°47'  
2014-Nov-19 16:09N 34°59' E 139°42'1219.1
2014-Nov-19 15:32N 35°10' E 139°45'1313.3
2014-Nov-19 14:34N 35°23' E 139°42'1615.5
2014-Nov-19 13:33N 35°37' E 139°49'0 0.0
2014-Nov-19 06:32N 35°38' E 139°50'0 0.0
2014-Nov-19 00:09N 35°38' E 139°50'2 3.6
2014-Nov-18 23:34N 35°36' E 139°50'1414.2
2014-Nov-18 22:33N 35°22' E 139°45'1211.8
2014-Nov-18 21:33N 35°10' E 139°47'25017.5
2014-Nov-18 07:16N 33°53' E 134°58'1521.4
2014-Nov-18 06:33N 34°09' E 134°58'2322.7
2014-Nov-18 05:33N 34°31' E 135°02'13 1.1
2014-Nov-17 17:31N 34°33' E 134°46'1515.3
2014-Nov-17 16:33N 34°36' E 135°04'1515.4
2014-Nov-17 15:33N 34°38' E 135°23'2 2.1
2014-Nov-17 14:29N 34°40' E 135°24'0 0.0
2014-Nov-17 13:29N 34°40' E 135°24'0 0.0
2014-Nov-17 12:29N 34°40' E 135°24'0 0.0
2014-Nov-17 11:29N 34°40' E 135°24'0 0.0
2014-Nov-17 10:23N 34°40' E 135°24'0 0.0
2014-Nov-17 09:29N 34°40' E 135°24'0 0.0
2014-Nov-17 08:17N 34°40' E 135°24'0 0.0
2014-Nov-17 07:23N 34°40' E 135°24'0 0.0
2014-Nov-17 06:29N 34°40' E 135°24'0 0.0
2014-Nov-17 05:29N 34°40' E 135°24'0 0.0
2014-Nov-17 04:29N 34°40' E 135°24'5 5.1
2014-Nov-17 03:33N 34°36' E 135°20'1616.5
2014-Nov-17 02:33N 34°24' E 135°07'1616.4
2014-Nov-17 01:33N 34°09' E 134°60'  

Dump ship's entire track history